首页
METAR-TAF:

METAR-TAF

机场 :

Fritzlar, 德国

纬度: 51-07N, 经度: 009-17E, 海拔: 172米

当前天气观测

该预报发布于59分钟前的16:20 UTC
风速4节,风向东转东南
温度 25°C
湿度 44%
气压 1018 hPa
能见度10公里或以上
少量云层高于6000英尺

METAR: ETHF 171620Z 12004KT 9999 FEW060 25/12 Q1018 BLU+

时间: 19:19 (17:19 UTC)

预报

该预报发布于2小时和43分钟前的14:36 UTC
预报有效从17日的 14点(UTC)到 17日的 23点(UTC)
风速5节,风向
能见度10公里或以上
少量云层高于5000英尺

TAF: ETHF 171436Z 1714/1723 17005KT 9999 NSW FEW050 CANCEL 1500Z

超过4000个机场的气象观测和天气预报(METAR&TAF报告)。

可查询的气象台以黄色和红色小点在地图上表示。

将鼠标移到小点上方,可查看气象台名称。

然后点击查看天气观测和预报。

如需切换地图:点击带黑十字的绿色按钮放大地图;点击带横线的绿色按钮缩小地图;或者点击绿色箭头查看邻近地区的地图。


METAR-TAF: